sensor_id;sensor_type;location;lat;lon;timestamp;temperature;humidity
24426;DHT22;12611;44.446;26.000;2023-10-09T00:00:35;15.90;63.00
24426;DHT22;12611;44.446;26.000;2023-10-09T00:03:29;15.90;62.90
24426;DHT22;12611;44.446;26.000;2023-10-09T00:05:59;15.90;62.60
24426;DHT22;12611;44.446;26.000;2023-10-09T00:08:33;15.90;62.50
24426;DHT22;12611;44.446;26.000;2023-10-09T00:11:04;15.90;62.20
24426;DHT22;12611;44.446;26.000;2023-10-09T00:13:45;15.80;61.90
24426;DHT22;12611;44.446;26.000;2023-10-09T00:16:20;15.80;61.90
24426;DHT22;12611;44.446;26.000;2023-10-09T00:19:00;15.80;61.40
24426;DHT22;12611;44.446;26.000;2023-10-09T00:21:41;15.70;61.10
24426;DHT22;12611;44.446;26.000;2023-10-09T00:24:09;15.80;61.20
24426;DHT22;12611;44.446;26.000;2023-10-09T00:26:44;15.80;60.80
24426;DHT22;12611;44.446;26.000;2023-10-09T00:29:15;15.70;60.70
24426;DHT22;12611;44.446;26.000;2023-10-09T00:31:50;15.70;60.10
24426;DHT22;12611;44.446;26.000;2023-10-09T00:34:22;15.60;61.00
24426;DHT22;12611;44.446;26.000;2023-10-09T00:36:53;15.60;60.00
24426;DHT22;12611;44.446;26.000;2023-10-09T00:39:22;15.60;59.70
24426;DHT22;12611;44.446;26.000;2023-10-09T00:42:01;15.60;59.70
24426;DHT22;12611;44.446;26.000;2023-10-09T00:44:31;15.60;59.40
24426;DHT22;12611;44.446;26.000;2023-10-09T00:47:06;15.60;59.40
24426;DHT22;12611;44.446;26.000;2023-10-09T00:49:50;15.60;59.40
24426;DHT22;12611;44.446;26.000;2023-10-09T00:52:29;15.50;59.10
24426;DHT22;12611;44.446;26.000;2023-10-09T00:55:05;15.50;59.10
24426;DHT22;12611;44.446;26.000;2023-10-09T00:57:42;15.50;58.50
24426;DHT22;12611;44.446;26.000;2023-10-09T01:00:19;15.40;58.30
24426;DHT22;12611;44.446;26.000;2023-10-09T01:03:02;15.40;57.80
24426;DHT22;12611;44.446;26.000;2023-10-09T01:05:47;15.40;58.00
24426;DHT22;12611;44.446;26.000;2023-10-09T01:08:26;15.40;57.70
24426;DHT22;12611;44.446;26.000;2023-10-09T01:10:58;15.40;57.40
24426;DHT22;12611;44.446;26.000;2023-10-09T01:13:37;15.40;57.30
24426;DHT22;12611;44.446;26.000;2023-10-09T01:16:23;15.40;57.30
24426;DHT22;12611;44.446;26.000;2023-10-09T01:18:53;15.30;56.80
24426;DHT22;12611;44.446;26.000;2023-10-09T01:21:25;15.40;57.10
24426;DHT22;12611;44.446;26.000;2023-10-09T01:23:56;15.30;56.90
24426;DHT22;12611;44.446;26.000;2023-10-09T01:26:32;15.30;56.40
24426;DHT22;12611;44.446;26.000;2023-10-09T01:29:07;15.20;56.00
24426;DHT22;12611;44.446;26.000;2023-10-09T01:31:39;15.20;56.00
24426;DHT22;12611;44.446;26.000;2023-10-09T01:34:11;15.20;56.20
24426;DHT22;12611;44.446;26.000;2023-10-09T01:36:42;15.10;56.00
24426;DHT22;12611;44.446;26.000;2023-10-09T01:39:12;15.10;56.10
24426;DHT22;12611;44.446;26.000;2023-10-09T01:41:51;15.10;56.30
24426;DHT22;12611;44.446;26.000;2023-10-09T01:44:26;15.10;56.00
24426;DHT22;12611;44.446;26.000;2023-10-09T01:46:58;15.00;55.70
24426;DHT22;12611;44.446;26.000;2023-10-09T01:49:27;15.00;56.10
24426;DHT22;12611;44.446;26.000;2023-10-09T01:51:58;15.00;56.20
24426;DHT22;12611;44.446;26.000;2023-10-09T01:54:36;15.00;56.00
24426;DHT22;12611;44.446;26.000;2023-10-09T01:57:09;15.00;56.00
24426;DHT22;12611;44.446;26.000;2023-10-09T01:59:39;14.90;55.70
24426;DHT22;12611;44.446;26.000;2023-10-09T02:02:11;14.90;55.90
24426;DHT22;12611;44.446;26.000;2023-10-09T02:04:52;15.00;56.00
24426;DHT22;12611;44.446;26.000;2023-10-09T02:07:22;14.90;55.90
24426;DHT22;12611;44.446;26.000;2023-10-09T02:09:56;14.80;55.60
24426;DHT22;12611;44.446;26.000;2023-10-09T02:12:25;14.80;55.70
24426;DHT22;12611;44.446;26.000;2023-10-09T02:15:00;14.80;55.70
24426;DHT22;12611;44.446;26.000;2023-10-09T02:17:36;14.80;55.60
24426;DHT22;12611;44.446;26.000;2023-10-09T02:20:20;14.80;55.80
24426;DHT22;12611;44.446;26.000;2023-10-09T02:22:55;14.80;55.70
24426;DHT22;12611;44.446;26.000;2023-10-09T02:25:26;14.70;55.70
24426;DHT22;12611;44.446;26.000;2023-10-09T02:28:01;14.70;55.80
24426;DHT22;12611;44.446;26.000;2023-10-09T02:30:34;14.70;56.00
24426;DHT22;12611;44.446;26.000;2023-10-09T02:33:04;14.70;56.10
24426;DHT22;12611;44.446;26.000;2023-10-09T02:35:37;14.70;56.10
24426;DHT22;12611;44.446;26.000;2023-10-09T02:38:06;14.70;56.10
24426;DHT22;12611;44.446;26.000;2023-10-09T02:40:39;14.70;56.20
24426;DHT22;12611;44.446;26.000;2023-10-09T02:43:32;14.60;56.30
24426;DHT22;12611;44.446;26.000;2023-10-09T02:46:12;14.60;56.20
24426;DHT22;12611;44.446;26.000;2023-10-09T02:48:45;14.60;56.30
24426;DHT22;12611;44.446;26.000;2023-10-09T02:51:19;14.50;56.40
24426;DHT22;12611;44.446;26.000;2023-10-09T02:54:01;14.50;56.50
24426;DHT22;12611;44.446;26.000;2023-10-09T02:56:48;14.50;56.70
24426;DHT22;12611;44.446;26.000;2023-10-09T02:59:24;14.50;56.70
24426;DHT22;12611;44.446;26.000;2023-10-09T03:01:52;14.40;56.70
24426;DHT22;12611;44.446;26.000;2023-10-09T03:04:21;14.40;56.90
24426;DHT22;12611;44.446;26.000;2023-10-09T03:06:51;14.40;56.80
24426;DHT22;12611;44.446;26.000;2023-10-09T03:09:25;14.40;57.00
24426;DHT22;12611;44.446;26.000;2023-10-09T03:12:02;14.40;57.00
24426;DHT22;12611;44.446;26.000;2023-10-09T03:14:35;14.40;57.10
24426;DHT22;12611;44.446;26.000;2023-10-09T03:17:05;14.30;57.20
24426;DHT22;12611;44.446;26.000;2023-10-09T03:19:39;14.30;57.40
24426;DHT22;12611;44.446;26.000;2023-10-09T03:22:11;14.30;57.40
24426;DHT22;12611;44.446;26.000;2023-10-09T03:24:40;14.30;57.50
24426;DHT22;12611;44.446;26.000;2023-10-09T03:27:18;14.30;57.50
24426;DHT22;12611;44.446;26.000;2023-10-09T03:29:47;14.30;57.50
24426;DHT22;12611;44.446;26.000;2023-10-09T03:32:22;14.30;57.50
24426;DHT22;12611;44.446;26.000;2023-10-09T03:34:51;14.30;57.50
24426;DHT22;12611;44.446;26.000;2023-10-09T03:37:22;14.30;57.70
24426;DHT22;12611;44.446;26.000;2023-10-09T03:40:02;14.40;57.70
24426;DHT22;12611;44.446;26.000;2023-10-09T03:42:35;14.40;57.70
24426;DHT22;12611;44.446;26.000;2023-10-09T03:45:09;14.40;57.60
24426;DHT22;12611;44.446;26.000;2023-10-09T03:47:46;14.40;57.60
24426;DHT22;12611;44.446;26.000;2023-10-09T03:50:21;14.40;57.50
24426;DHT22;12611;44.446;26.000;2023-10-09T03:52:55;14.40;57.50
24426;DHT22;12611;44.446;26.000;2023-10-09T03:55:24;14.40;57.40
24426;DHT22;12611;44.446;26.000;2023-10-09T03:57:57;14.40;57.50
24426;DHT22;12611;44.446;26.000;2023-10-09T04:00:29;14.40;57.40
24426;DHT22;12611;44.446;26.000;2023-10-09T04:02:59;14.40;57.20
24426;DHT22;12611;44.446;26.000;2023-10-09T04:05:31;14.30;57.20
24426;DHT22;12611;44.446;26.000;2023-10-09T04:08:00;14.30;57.00
24426;DHT22;12611;44.446;26.000;2023-10-09T04:10:29;14.30;57.10
24426;DHT22;12611;44.446;26.000;2023-10-09T04:13:13;14.30;57.10
24426;DHT22;12611;44.446;26.000;2023-10-09T04:15:45;14.30;57.10
24426;DHT22;12611;44.446;26.000;2023-10-09T04:18:17;14.30;57.00
24426;DHT22;12611;44.446;26.000;2023-10-09T04:20:55;14.30;57.00
24426;DHT22;12611;44.446;26.000;2023-10-09T04:23:42;14.30;56.80
24426;DHT22;12611;44.446;26.000;2023-10-09T04:26:55;14.30;56.80
24426;DHT22;12611;44.446;26.000;2023-10-09T04:29:34;14.30;56.70
24426;DHT22;12611;44.446;26.000;2023-10-09T04:32:06;14.30;56.60
24426;DHT22;12611;44.446;26.000;2023-10-09T04:50:07;14.40;56.00
24426;DHT22;12611;44.446;26.000;2023-10-09T04:53:13;14.40;56.00
24426;DHT22;12611;44.446;26.000;2023-10-09T04:56:37;14.40;55.90
24426;DHT22;12611;44.446;26.000;2023-10-09T05:22:33;14.50;55.70
24426;DHT22;12611;44.446;26.000;2023-10-09T05:25:20;14.60;55.80
24426;DHT22;12611;44.446;26.000;2023-10-09T05:28:09;14.70;55.70
24426;DHT22;12611;44.446;26.000;2023-10-09T05:30:52;14.60;55.70
24426;DHT22;12611;44.446;26.000;2023-10-09T05:33:29;14.70;55.00
24426;DHT22;12611;44.446;26.000;2023-10-09T05:36:02;14.80;55.00
24426;DHT22;12611;44.446;26.000;2023-10-09T05:38:46;14.80;55.00
24426;DHT22;12611;44.446;26.000;2023-10-09T05:41:25;14.80;54.60
24426;DHT22;12611;44.446;26.000;2023-10-09T05:44:15;14.80;54.40
24426;DHT22;12611;44.446;26.000;2023-10-09T05:47:01;14.90;53.70
24426;DHT22;12611;44.446;26.000;2023-10-09T05:49:46;14.90;53.90
24426;DHT22;12611;44.446;26.000;2023-10-09T05:52:22;14.90;53.90
24426;DHT22;12611;44.446;26.000;2023-10-09T05:55:10;15.00;53.90
24426;DHT22;12611;44.446;26.000;2023-10-09T05:58:08;15.00;54.00
24426;DHT22;12611;44.446;26.000;2023-10-09T06:00:54;15.00;53.40
24426;DHT22;12611;44.446;26.000;2023-10-09T06:03:54;15.10;53.00
24426;DHT22;12611;44.446;26.000;2023-10-09T06:06:32;15.10;52.80
24426;DHT22;12611;44.446;26.000;2023-10-09T06:09:13;15.20;53.20
24426;DHT22;12611;44.446;26.000;2023-10-09T06:12:19;15.20;53.00
24426;DHT22;12611;44.446;26.000;2023-10-09T06:15:21;15.30;53.10
24426;DHT22;12611;44.446;26.000;2023-10-09T06:18:18;15.30;52.80
24426;DHT22;12611;44.446;26.000;2023-10-09T06:21:03;15.40;52.50
24426;DHT22;12611;44.446;26.000;2023-10-09T06:23:46;15.40;52.10
24426;DHT22;12611;44.446;26.000;2023-10-09T06:26:37;15.40;51.70
24426;DHT22;12611;44.446;26.000;2023-10-09T06:29:10;15.50;51.80
24426;DHT22;12611;44.446;26.000;2023-10-09T06:31:44;15.50;50.90
24426;DHT22;12611;44.446;26.000;2023-10-09T06:34:29;15.50;50.60
24426;DHT22;12611;44.446;26.000;2023-10-09T06:37:00;15.50;50.30
24426;DHT22;12611;44.446;26.000;2023-10-09T06:39:44;15.50;49.90
24426;DHT22;12611;44.446;26.000;2023-10-09T06:42:28;15.50;50.10
24426;DHT22;12611;44.446;26.000;2023-10-09T06:45:03;15.60;50.40
24426;DHT22;12611;44.446;26.000;2023-10-09T06:47:33;15.60;49.90
24426;DHT22;12611;44.446;26.000;2023-10-09T06:50:11;15.60;50.00
24426;DHT22;12611;44.446;26.000;2023-10-09T06:53:14;15.60;49.40
24426;DHT22;12611;44.446;26.000;2023-10-09T06:55:53;15.60;49.90
24426;DHT22;12611;44.446;26.000;2023-10-09T06:58:33;15.70;49.80
24426;DHT22;12611;44.446;26.000;2023-10-09T07:01:11;15.70;49.90
24426;DHT22;12611;44.446;26.000;2023-10-09T07:04:07;15.80;49.80
24426;DHT22;12611;44.446;26.000;2023-10-09T07:06:51;15.80;49.90
24426;DHT22;12611;44.446;26.000;2023-10-09T07:09:19;15.80;49.70
24426;DHT22;12611;44.446;26.000;2023-10-09T07:11:49;15.80;49.60
24426;DHT22;12611;44.446;26.000;2023-10-09T07:14:37;15.90;49.70
24426;DHT22;12611;44.446;26.000;2023-10-09T07:17:24;15.90;50.30
24426;DHT22;12611;44.446;26.000;2023-10-09T07:20:11;15.90;49.90
24426;DHT22;12611;44.446;26.000;2023-10-09T07:22:43;16.00;50.00
24426;DHT22;12611;44.446;26.000;2023-10-09T07:25:20;16.00;49.90
24426;DHT22;12611;44.446;26.000;2023-10-09T07:28:03;16.10;49.40
24426;DHT22;12611;44.446;26.000;2023-10-09T07:30:45;16.10;49.40
24426;DHT22;12611;44.446;26.000;2023-10-09T07:33:16;16.10;48.80
24426;DHT22;12611;44.446;26.000;2023-10-09T07:36:01;16.20;49.20
24426;DHT22;12611;44.446;26.000;2023-10-09T07:38:33;16.20;48.70
24426;DHT22;12611;44.446;26.000;2023-10-09T07:41:04;16.20;48.20
24426;DHT22;12611;44.446;26.000;2023-10-09T07:43:47;16.20;47.60
24426;DHT22;12611;44.446;26.000;2023-10-09T07:46:18;16.20;48.10
24426;DHT22;12611;44.446;26.000;2023-10-09T07:49:04;16.30;48.30
24426;DHT22;12611;44.446;26.000;2023-10-09T07:51:37;16.30;47.80
24426;DHT22;12611;44.446;26.000;2023-10-09T07:54:11;16.30;47.80
24426;DHT22;12611;44.446;26.000;2023-10-09T07:56:44;16.40;47.80
24426;DHT22;12611;44.446;26.000;2023-10-09T07:59:14;16.50;48.00
24426;DHT22;12611;44.446;26.000;2023-10-09T08:01:47;16.50;47.20
24426;DHT22;12611;44.446;26.000;2023-10-09T08:04:23;16.60;47.60
24426;DHT22;12611;44.446;26.000;2023-10-09T08:07:06;16.60;47.50
24426;DHT22;12611;44.446;26.000;2023-10-09T08:09:54;16.70;47.40
24426;DHT22;12611;44.446;26.000;2023-10-09T08:12:40;16.60;46.70
24426;DHT22;12611;44.446;26.000;2023-10-09T08:15:24;16.70;46.90
24426;DHT22;12611;44.446;26.000;2023-10-09T08:18:03;16.70;47.10
24426;DHT22;12611;44.446;26.000;2023-10-09T08:20:39;16.70;47.10
24426;DHT22;12611;44.446;26.000;2023-10-09T08:23:40;16.70;46.60
24426;DHT22;12611;44.446;26.000;2023-10-09T08:26:17;16.90;47.00
24426;DHT22;12611;44.446;26.000;2023-10-09T08:29:00;16.90;47.10
24426;DHT22;12611;44.446;26.000;2023-10-09T08:31:43;16.90;46.30
24426;DHT22;12611;44.446;26.000;2023-10-09T08:34:24;17.00;46.40
24426;DHT22;12611;44.446;26.000;2023-10-09T08:36:56;16.90;46.00
24426;DHT22;12611;44.446;26.000;2023-10-09T08:39:25;17.10;46.50
24426;DHT22;12611;44.446;26.000;2023-10-09T08:41:55;17.10;46.50
24426;DHT22;12611;44.446;26.000;2023-10-09T08:44:26;17.10;45.70
24426;DHT22;12611;44.446;26.000;2023-10-09T08:47:00;17.10;45.90
24426;DHT22;12611;44.446;26.000;2023-10-09T08:49:28;17.20;45.50
24426;DHT22;12611;44.446;26.000;2023-10-09T08:52:03;17.20;45.70
24426;DHT22;12611;44.446;26.000;2023-10-09T08:54:34;17.40;46.30
24426;DHT22;12611;44.446;26.000;2023-10-09T08:57:02;17.30;45.50
24426;DHT22;12611;44.446;26.000;2023-10-09T08:59:42;17.40;45.90
24426;DHT22;12611;44.446;26.000;2023-10-09T09:02:13;17.40;45.90
24426;DHT22;12611;44.446;26.000;2023-10-09T09:04:42;17.40;45.50
24426;DHT22;12611;44.446;26.000;2023-10-09T09:07:27;17.50;45.70
24426;DHT22;12611;44.446;26.000;2023-10-09T09:09:59;17.50;45.80
24426;DHT22;12611;44.446;26.000;2023-10-09T09:12:31;17.60;46.10
24426;DHT22;12611;44.446;26.000;2023-10-09T09:15:13;17.50;45.20
24426;DHT22;12611;44.446;26.000;2023-10-09T09:18:03;17.50;44.80
24426;DHT22;12611;44.446;26.000;2023-10-09T09:20:33;17.60;45.50
24426;DHT22;12611;44.446;26.000;2023-10-09T09:23:10;17.70;45.60
24426;DHT22;12611;44.446;26.000;2023-10-09T09:25:41;17.70;45.10
24426;DHT22;12611;44.446;26.000;2023-10-09T09:28:15;17.70;44.90
24426;DHT22;12611;44.446;26.000;2023-10-09T09:30:49;17.80;45.10
24426;DHT22;12611;44.446;26.000;2023-10-09T09:33:24;17.80;45.10
24426;DHT22;12611;44.446;26.000;2023-10-09T09:36:07;17.90;44.50
24426;DHT22;12611;44.446;26.000;2023-10-09T09:38:41;17.90;44.80
24426;DHT22;12611;44.446;26.000;2023-10-09T09:41:15;17.80;44.60
24426;DHT22;12611;44.446;26.000;2023-10-09T09:43:56;17.80;43.90
24426;DHT22;12611;44.446;26.000;2023-10-09T09:46:28;17.90;44.50
24426;DHT22;12611;44.446;26.000;2023-10-09T09:49:02;18.00;44.80
24426;DHT22;12611;44.446;26.000;2023-10-09T09:51:46;18.10;45.10
24426;DHT22;12611;44.446;26.000;2023-10-09T09:54:31;18.10;44.70
24426;DHT22;12611;44.446;26.000;2023-10-09T09:57:07;18.10;43.80
24426;DHT22;12611;44.446;26.000;2023-10-09T09:59:55;18.20;43.90
24426;DHT22;12611;44.446;26.000;2023-10-09T10:02:40;18.20;43.80
24426;DHT22;12611;44.446;26.000;2023-10-09T10:05:28;18.30;43.80
24426;DHT22;12611;44.446;26.000;2023-10-09T10:07:59;18.30;43.30
24426;DHT22;12611;44.446;26.000;2023-10-09T10:10:52;18.40;43.30
24426;DHT22;12611;44.446;26.000;2023-10-09T10:13:55;18.40;42.90
24426;DHT22;12611;44.446;26.000;2023-10-09T10:20:05;18.40;42.80
24426;DHT22;12611;44.446;26.000;2023-10-09T10:23:16;18.40;42.90
24426;DHT22;12611;44.446;26.000;2023-10-09T10:25:47;18.50;42.90
24426;DHT22;12611;44.446;26.000;2023-10-09T10:28:29;18.50;43.20
24426;DHT22;12611;44.446;26.000;2023-10-09T10:31:07;18.60;43.20
24426;DHT22;12611;44.446;26.000;2023-10-09T10:34:05;18.60;42.30
24426;DHT22;12611;44.446;26.000;2023-10-09T10:36:38;18.60;42.50
24426;DHT22;12611;44.446;26.000;2023-10-09T10:39:12;18.70;42.30
24426;DHT22;12611;44.446;26.000;2023-10-09T10:41:55;18.70;42.60
24426;DHT22;12611;44.446;26.000;2023-10-09T10:44:32;18.80;42.50
24426;DHT22;12611;44.446;26.000;2023-10-09T10:47:06;18.80;42.20
24426;DHT22;12611;44.446;26.000;2023-10-09T10:49:50;18.90;42.30
24426;DHT22;12611;44.446;26.000;2023-10-09T10:52:27;18.90;42.30
24426;DHT22;12611;44.446;26.000;2023-10-09T10:55:12;18.90;41.60
24426;DHT22;12611;44.446;26.000;2023-10-09T10:58:16;18.90;41.30
24426;DHT22;12611;44.446;26.000;2023-10-09T11:00:54;18.90;41.40
24426;DHT22;12611;44.446;26.000;2023-10-09T11:03:39;19.00;41.60
24426;DHT22;12611;44.446;26.000;2023-10-09T11:06:26;19.00;42.00
24426;DHT22;12611;44.446;26.000;2023-10-09T11:09:08;19.10;42.30
24426;DHT22;12611;44.446;26.000;2023-10-09T11:12:04;19.00;41.20
24426;DHT22;12611;44.446;26.000;2023-10-09T11:14:57;19.10;41.90
24426;DHT22;12611;44.446;26.000;2023-10-09T11:17:39;19.20;42.10
24426;DHT22;12611;44.446;26.000;2023-10-09T11:20:18;19.20;42.10
24426;DHT22;12611;44.446;26.000;2023-10-09T11:22:54;19.20;42.40
24426;DHT22;12611;44.446;26.000;2023-10-09T11:25:44;19.30;42.40
24426;DHT22;12611;44.446;26.000;2023-10-09T11:28:21;19.20;41.70
24426;DHT22;12611;44.446;26.000;2023-10-09T11:31:10;19.30;42.10
24426;DHT22;12611;44.446;26.000;2023-10-09T11:33:47;19.40;42.40
24426;DHT22;12611;44.446;26.000;2023-10-09T11:36:16;19.30;41.90
24426;DHT22;12611;44.446;26.000;2023-10-09T11:38:43;19.30;42.20
24426;DHT22;12611;44.446;26.000;2023-10-09T11:41:17;19.30;42.30
24426;DHT22;12611;44.446;26.000;2023-10-09T11:43:51;19.40;42.10
24426;DHT22;12611;44.446;26.000;2023-10-09T11:46:21;19.50;42.30
24426;DHT22;12611;44.446;26.000;2023-10-09T11:49:18;19.60;42.60
24426;DHT22;12611;44.446;26.000;2023-10-09T11:52:08;19.60;42.60
24426;DHT22;12611;44.446;26.000;2023-10-09T11:54:54;19.70;42.60
24426;DHT22;12611;44.446;26.000;2023-10-09T11:57:25;19.80;42.70
24426;DHT22;12611;44.446;26.000;2023-10-09T11:59:58;19.80;42.60
24426;DHT22;12611;44.446;26.000;2023-10-09T12:02:27;19.80;41.90
24426;DHT22;12611;44.446;26.000;2023-10-09T12:05:00;19.80;42.10
24426;DHT22;12611;44.446;26.000;2023-10-09T12:07:29;19.80;42.10
24426;DHT22;12611;44.446;26.000;2023-10-09T12:09:58;19.80;42.10
24426;DHT22;12611;44.446;26.000;2023-10-09T12:12:27;19.80;42.00
24426;DHT22;12611;44.446;26.000;2023-10-09T12:14:56;19.90;42.50
24426;DHT22;12611;44.446;26.000;2023-10-09T12:17:25;19.90;42.60
24426;DHT22;12611;44.446;26.000;2023-10-09T12:19:54;20.00;42.30
24426;DHT22;12611;44.446;26.000;2023-10-09T12:22:25;20.00;42.30
24426;DHT22;12611;44.446;26.000;2023-10-09T12:24:55;20.00;42.30
24426;DHT22;12611;44.446;26.000;2023-10-09T12:27:24;20.00;42.30
24426;DHT22;12611;44.446;26.000;2023-10-09T12:29:58;20.00;42.40
24426;DHT22;12611;44.446;26.000;2023-10-09T12:32:27;20.10;42.70
24426;DHT22;12611;44.446;26.000;2023-10-09T12:34:56;20.10;42.60
24426;DHT22;12611;44.446;26.000;2023-10-09T12:37:26;20.20;42.60
24426;DHT22;12611;44.446;26.000;2023-10-09T12:39:56;20.20;42.40
24426;DHT22;12611;44.446;26.000;2023-10-09T12:42:25;20.30;42.10
24426;DHT22;12611;44.446;26.000;2023-10-09T12:44:55;20.30;42.00
24426;DHT22;12611;44.446;26.000;2023-10-09T12:47:25;20.40;42.20
24426;DHT22;12611;44.446;26.000;2023-10-09T12:49:54;20.40;41.80
24426;DHT22;12611;44.446;26.000;2023-10-09T12:52:23;20.30;41.70
24426;DHT22;12611;44.446;26.000;2023-10-09T12:54:58;20.40;42.10
24426;DHT22;12611;44.446;26.000;2023-10-09T12:57:27;20.40;41.70
24426;DHT22;12611;44.446;26.000;2023-10-09T12:59:56;20.50;41.80
24426;DHT22;12611;44.446;26.000;2023-10-09T13:02:25;20.60;41.60
24426;DHT22;12611;44.446;26.000;2023-10-09T13:04:57;20.60;41.40
24426;DHT22;12611;44.446;26.000;2023-10-09T13:07:29;20.60;41.00
24426;DHT22;12611;44.446;26.000;2023-10-09T13:09:59;20.60;41.30
24426;DHT22;12611;44.446;26.000;2023-10-09T13:12:42;20.60;41.40
24426;DHT22;12611;44.446;26.000;2023-10-09T13:15:11;20.60;41.20
24426;DHT22;12611;44.446;26.000;2023-10-09T13:17:42;20.60;41.20
24426;DHT22;12611;44.446;26.000;2023-10-09T13:20:12;20.60;41.50
24426;DHT22;12611;44.446;26.000;2023-10-09T13:22:42;20.50;40.80
24426;DHT22;12611;44.446;26.000;2023-10-09T13:25:14;20.50;41.30
24426;DHT22;12611;44.446;26.000;2023-10-09T13:47:08;20.30;41.60
24426;DHT22;12611;44.446;26.000;2023-10-09T13:50:12;20.30;41.60
24426;DHT22;12611;44.446;26.000;2023-10-09T13:53:01;20.30;41.40
24426;DHT22;12611;44.446;26.000;2023-10-09T13:55:37;20.30;41.20
24426;DHT22;12611;44.446;26.000;2023-10-09T13:58:11;20.30;41.30
24426;DHT22;12611;44.446;26.000;2023-10-09T14:00:41;20.30;41.30
24426;DHT22;12611;44.446;26.000;2023-10-09T14:03:15;20.30;41.30
24426;DHT22;12611;44.446;26.000;2023-10-09T14:05:47;20.30;42.20
24426;DHT22;12611;44.446;26.000;2023-10-09T14:08:24;20.30;41.20
24426;DHT22;12611;44.446;26.000;2023-10-09T14:10:56;20.30;41.40
24426;DHT22;12611;44.446;26.000;2023-10-09T14:13:25;20.30;41.50
24426;DHT22;12611;44.446;26.000;2023-10-09T14:15:57;20.30;41.20
24426;DHT22;12611;44.446;26.000;2023-10-09T14:18:31;20.30;41.50
24426;DHT22;12611;44.446;26.000;2023-10-09T14:21:04;20.20;41.40
24426;DHT22;12611;44.446;26.000;2023-10-09T14:23:43;20.20;41.70
24426;DHT22;12611;44.446;26.000;2023-10-09T14:26:13;20.30;41.80
24426;DHT22;12611;44.446;26.000;2023-10-09T14:28:47;20.20;41.80
24426;DHT22;12611;44.446;26.000;2023-10-09T14:31:18;20.20;41.70
24426;DHT22;12611;44.446;26.000;2023-10-09T14:33:55;20.20;41.70
24426;DHT22;12611;44.446;26.000;2023-10-09T14:36:25;20.10;41.80
24426;DHT22;12611;44.446;26.000;2023-10-09T14:39:01;20.10;41.90
24426;DHT22;12611;44.446;26.000;2023-10-09T15:55:27;19.70;43.90
24426;DHT22;12611;44.446;26.000;2023-10-09T15:58:09;19.70;43.90
24426;DHT22;12611;44.446;26.000;2023-10-09T16:03:25;19.60;44.00
24426;DHT22;12611;44.446;26.000;2023-10-09T16:05:55;19.60;43.90
24426;DHT22;12611;44.446;26.000;2023-10-09T16:08:28;19.60;43.90
24426;DHT22;12611;44.446;26.000;2023-10-09T16:11:01;19.60;43.80
24426;DHT22;12611;44.446;26.000;2023-10-09T16:13:30;19.60;43.80
24426;DHT22;12611;44.446;26.000;2023-10-09T16:16:00;19.60;43.80
24426;DHT22;12611;44.446;26.000;2023-10-09T16:18:30;19.50;43.90
24426;DHT22;12611;44.446;26.000;2023-10-09T16:21:03;19.50;43.90
24426;DHT22;12611;44.446;26.000;2023-10-09T16:23:32;19.50;44.00
24426;DHT22;12611;44.446;26.000;2023-10-09T16:26:02;19.50;44.00
24426;DHT22;12611;44.446;26.000;2023-10-09T16:28:34;19.50;44.10
24426;DHT22;12611;44.446;26.000;2023-10-09T16:31:04;19.50;44.20
24426;DHT22;12611;44.446;26.000;2023-10-09T16:33:39;19.50;44.10
24426;DHT22;12611;44.446;26.000;2023-10-09T16:36:08;19.50;44.20
24426;DHT22;12611;44.446;26.000;2023-10-09T16:38:40;19.50;44.20
24426;DHT22;12611;44.446;26.000;2023-10-09T16:41:12;19.40;44.20
24426;DHT22;12611;44.446;26.000;2023-10-09T16:43:42;19.40;44.20
24426;DHT22;12611;44.446;26.000;2023-10-09T16:46:14;19.40;44.20
24426;DHT22;12611;44.446;26.000;2023-10-09T16:48:44;19.40;44.20
24426;DHT22;12611;44.446;26.000;2023-10-09T16:51:14;19.40;44.30
24426;DHT22;12611;44.446;26.000;2023-10-09T16:53:45;19.40;44.30
24426;DHT22;12611;44.446;26.000;2023-10-09T19:13:25;18.60;48.60
24426;DHT22;12611;44.446;26.000;2023-10-09T19:15:58;18.70;48.70
24426;DHT22;12611;44.446;26.000;2023-10-09T19:18:26;18.70;48.70
24426;DHT22;12611;44.446;26.000;2023-10-09T19:20:55;18.60;48.80
24426;DHT22;12611;44.446;26.000;2023-10-09T19:23:25;18.70;48.80
24426;DHT22;12611;44.446;26.000;2023-10-09T19:25:54;18.70;48.90
24426;DHT22;12611;44.446;26.000;2023-10-09T19:28:26;18.60;48.90
24426;DHT22;12611;44.446;26.000;2023-10-09T19:31:03;18.60;48.90
24426;DHT22;12611;44.446;26.000;2023-10-09T19:33:32;18.60;49.20
24426;DHT22;12611;44.446;26.000;2023-10-09T19:36:03;18.70;49.40
24426;DHT22;12611;44.446;26.000;2023-10-09T19:38:38;18.60;49.50
24426;DHT22;12611;44.446;26.000;2023-10-09T19:41:08;18.60;49.50
24426;DHT22;12611;44.446;26.000;2023-10-09T19:43:41;18.60;49.70
24426;DHT22;12611;44.446;26.000;2023-10-09T19:46:10;18.60;49.90
24426;DHT22;12611;44.446;26.000;2023-10-09T19:48:41;18.60;50.00
24426;DHT22;12611;44.446;26.000;2023-10-09T19:51:13;18.60;49.80
24426;DHT22;12611;44.446;26.000;2023-10-09T19:53:43;18.60;49.80
24426;DHT22;12611;44.446;26.000;2023-10-09T19:56:12;18.60;50.20
24426;DHT22;12611;44.446;26.000;2023-10-09T19:58:42;18.60;50.50
24426;DHT22;12611;44.446;26.000;2023-10-09T20:01:13;18.60;50.60
24426;DHT22;12611;44.446;26.000;2023-10-09T20:03:43;18.60;50.40
24426;DHT22;12611;44.446;26.000;2023-10-09T20:06:12;18.60;51.00
24426;DHT22;12611;44.446;26.000;2023-10-09T20:08:43;18.60;50.30
24426;DHT22;12611;44.446;26.000;2023-10-09T20:11:11;18.60;50.40
24426;DHT22;12611;44.446;26.000;2023-10-09T20:13:45;18.60;50.40
24426;DHT22;12611;44.446;26.000;2023-10-09T20:16:17;18.60;50.30
24426;DHT22;12611;44.446;26.000;2023-10-09T20:18:46;18.60;50.30
24426;DHT22;12611;44.446;26.000;2023-10-09T20:21:17;18.60;50.60
24426;DHT22;12611;44.446;26.000;2023-10-09T20:23:47;18.60;50.60
24426;DHT22;12611;44.446;26.000;2023-10-09T20:26:19;18.60;50.60
24426;DHT22;12611;44.446;26.000;2023-10-09T20:28:49;18.50;50.70
24426;DHT22;12611;44.446;26.000;2023-10-09T20:31:18;18.60;50.80
24426;DHT22;12611;44.446;26.000;2023-10-09T20:33:47;18.50;51.10
24426;DHT22;12611;44.446;26.000;2023-10-09T20:36:18;18.50;51.10
24426;DHT22;12611;44.446;26.000;2023-10-09T20:38:48;18.50;51.30
24426;DHT22;12611;44.446;26.000;2023-10-09T20:41:17;18.50;51.30
24426;DHT22;12611;44.446;26.000;2023-10-09T20:43:51;18.50;51.20
24426;DHT22;12611;44.446;26.000;2023-10-09T20:46:21;18.50;51.20